sensor_id;sensor_type;location;lat;lon;timestamp;temperature;humidity
9662;DHT22;24982;52.344;12.990;2023-05-29T00:01:12;16.70;99.90
9662;DHT22;24982;52.344;12.990;2023-05-29T00:04:19;16.70;99.90
9662;DHT22;24982;52.344;12.990;2023-05-29T00:07:23;16.60;99.90
9662;DHT22;24982;52.344;12.990;2023-05-29T00:10:26;16.60;99.90
9662;DHT22;24982;52.344;12.990;2023-05-29T02:40:09;15.10;99.90
9662;DHT22;24982;52.344;12.990;2023-05-29T02:43:14;15.00;99.90
9662;DHT22;24982;52.344;12.990;2023-05-29T02:46:16;15.00;99.90
9662;DHT22;24982;52.344;12.990;2023-05-29T02:49:17;14.90;99.90
9662;DHT22;24982;52.344;12.990;2023-05-29T02:52:19;14.90;99.90
9662;DHT22;24982;52.344;12.990;2023-05-29T02:55:23;14.90;99.90
9662;DHT22;24982;52.344;12.990;2023-05-29T02:58:26;14.80;99.90
9662;DHT22;24982;52.344;12.990;2023-05-29T03:01:29;14.90;99.90
9662;DHT22;24982;52.344;12.990;2023-05-29T03:04:31;14.80;99.90
9662;DHT22;24982;52.344;12.990;2023-05-29T03:07:33;14.70;99.90
9662;DHT22;24982;52.344;12.990;2023-05-29T03:10:34;14.70;99.90
9662;DHT22;24982;52.344;12.990;2023-05-29T03:13:38;14.70;99.90
9662;DHT22;24982;52.344;12.990;2023-05-29T03:16:43;14.70;99.90
9662;DHT22;24982;52.344;12.990;2023-05-29T03:19:45;14.70;99.90
9662;DHT22;24982;52.344;12.990;2023-05-29T03:22:47;14.70;99.90
9662;DHT22;24982;52.344;12.990;2023-05-29T03:25:49;14.60;99.90
9662;DHT22;24982;52.344;12.990;2023-05-29T03:28:53;14.60;99.90
9662;DHT22;24982;52.344;12.990;2023-05-29T03:31:55;14.60;99.90
9662;DHT22;24982;52.344;12.990;2023-05-29T03:35:02;14.70;99.90
9662;DHT22;24982;52.344;12.990;2023-05-29T03:38:05;14.70;99.90
9662;DHT22;24982;52.344;12.990;2023-05-29T03:41:07;14.80;99.90
9662;DHT22;24982;52.344;12.990;2023-05-29T03:44:10;14.70;99.90
9662;DHT22;24982;52.344;12.990;2023-05-29T03:47:12;14.80;99.90
9662;DHT22;24982;52.344;12.990;2023-05-29T03:50:15;14.80;99.90
9662;DHT22;24982;52.344;12.990;2023-05-29T03:53:18;14.80;99.90
9662;DHT22;24982;52.344;12.990;2023-05-29T03:56:20;14.80;99.90
9662;DHT22;24982;52.344;12.990;2023-05-29T03:59:23;14.80;99.90
9662;DHT22;24982;52.344;12.990;2023-05-29T04:02:26;14.80;99.90
9662;DHT22;24982;52.344;12.990;2023-05-29T04:05:28;14.80;99.90
9662;DHT22;24982;52.344;12.990;2023-05-29T04:08:30;14.80;99.90
9662;DHT22;24982;52.344;12.990;2023-05-29T04:11:32;14.90;99.90
9662;DHT22;24982;52.344;12.990;2023-05-29T04:14:36;14.80;99.90
9662;DHT22;24982;52.344;12.990;2023-05-29T04:17:38;14.90;99.90
9662;DHT22;24982;52.344;12.990;2023-05-29T04:20:41;14.90;99.90
9662;DHT22;24982;52.344;12.990;2023-05-29T04:23:46;15.10;99.90
9662;DHT22;24982;52.344;12.990;2023-05-29T04:26:48;15.10;99.90
9662;DHT22;24982;52.344;12.990;2023-05-29T04:29:52;15.20;99.90
9662;DHT22;24982;52.344;12.990;2023-05-29T04:32:54;15.20;99.90
9662;DHT22;24982;52.344;12.990;2023-05-29T04:35:58;15.20;99.90
9662;DHT22;24982;52.344;12.990;2023-05-29T04:39:02;15.30;99.90
9662;DHT22;24982;52.344;12.990;2023-05-29T04:42:04;15.30;99.90
9662;DHT22;24982;52.344;12.990;2023-05-29T04:45:10;15.40;99.90
9662;DHT22;24982;52.344;12.990;2023-05-29T04:48:13;15.40;99.90
9662;DHT22;24982;52.344;12.990;2023-05-29T04:51:17;15.40;99.90
9662;DHT22;24982;52.344;12.990;2023-05-29T04:54:22;15.40;99.90
9662;DHT22;24982;52.344;12.990;2023-05-29T04:57:27;15.50;99.90
9662;DHT22;24982;52.344;12.990;2023-05-29T05:00:31;15.60;99.90
9662;DHT22;24982;52.344;12.990;2023-05-29T05:03:33;15.60;99.90
9662;DHT22;24982;52.344;12.990;2023-05-29T05:06:35;15.60;99.90
9662;DHT22;24982;52.344;12.990;2023-05-29T05:09:38;15.70;99.90
9662;DHT22;24982;52.344;12.990;2023-05-29T05:12:42;15.70;99.90
9662;DHT22;24982;52.344;12.990;2023-05-29T05:15:46;15.80;99.90
9662;DHT22;24982;52.344;12.990;2023-05-29T05:18:48;15.80;99.90
9662;DHT22;24982;52.344;12.990;2023-05-29T05:21:51;15.80;99.90
9662;DHT22;24982;52.344;12.990;2023-05-29T05:24:56;15.90;99.90
9662;DHT22;24982;52.344;12.990;2023-05-29T05:28:00;15.80;99.90
9662;DHT22;24982;52.344;12.990;2023-05-29T05:31:05;15.80;99.90
9662;DHT22;24982;52.344;12.990;2023-05-29T05:34:07;15.80;99.90
9662;DHT22;24982;52.344;12.990;2023-05-29T05:37:09;15.90;99.90
9662;DHT22;24982;52.344;12.990;2023-05-29T05:40:13;15.90;99.90
9662;DHT22;24982;52.344;12.990;2023-05-29T05:43:25;15.90;99.90
9662;DHT22;24982;52.344;12.990;2023-05-29T05:46:42;16.00;99.90
9662;DHT22;24982;52.344;12.990;2023-05-29T05:49:44;16.00;99.90
9662;DHT22;24982;52.344;12.990;2023-05-29T05:52:47;16.10;99.90
9662;DHT22;24982;52.344;12.990;2023-05-29T05:55:49;16.10;99.90
9662;DHT22;24982;52.344;12.990;2023-05-29T05:58:52;16.20;99.90
9662;DHT22;24982;52.344;12.990;2023-05-29T06:01:56;16.20;99.90
9662;DHT22;24982;52.344;12.990;2023-05-29T06:04:58;16.20;99.90
9662;DHT22;24982;52.344;12.990;2023-05-29T06:08:02;16.10;99.90
9662;DHT22;24982;52.344;12.990;2023-05-29T06:11:04;16.20;99.90
9662;DHT22;24982;52.344;12.990;2023-05-29T06:14:09;16.10;99.90
9662;DHT22;24982;52.344;12.990;2023-05-29T06:17:12;16.10;99.90
9662;DHT22;24982;52.344;12.990;2023-05-29T06:20:14;16.20;99.90
9662;DHT22;24982;52.344;12.990;2023-05-29T06:23:17;16.30;99.90
9662;DHT22;24982;52.344;12.990;2023-05-29T06:26:19;16.30;99.90
9662;DHT22;24982;52.344;12.990;2023-05-29T06:29:23;16.30;99.90
9662;DHT22;24982;52.344;12.990;2023-05-29T06:32:27;16.30;99.90
9662;DHT22;24982;52.344;12.990;2023-05-29T06:35:31;16.40;99.90
9662;DHT22;24982;52.344;12.990;2023-05-29T06:38:33;16.50;99.90
9662;DHT22;24982;52.344;12.990;2023-05-29T06:41:36;16.60;99.90
9662;DHT22;24982;52.344;12.990;2023-05-29T06:44:37;16.60;99.90
9662;DHT22;24982;52.344;12.990;2023-05-29T06:47:41;16.60;99.90
9662;DHT22;24982;52.344;12.990;2023-05-29T06:50:44;16.70;99.90
9662;DHT22;24982;52.344;12.990;2023-05-29T06:54:04;16.70;99.90
9662;DHT22;24982;52.344;12.990;2023-05-29T06:57:07;16.70;99.90
9662;DHT22;24982;52.344;12.990;2023-05-29T07:00:10;16.80;99.90
9662;DHT22;24982;52.344;12.990;2023-05-29T07:03:19;16.80;99.90
9662;DHT22;24982;52.344;12.990;2023-05-29T07:06:22;16.90;99.90
9662;DHT22;24982;52.344;12.990;2023-05-29T07:09:24;16.90;99.90
9662;DHT22;24982;52.344;12.990;2023-05-29T07:12:28;16.90;99.90
9662;DHT22;24982;52.344;12.990;2023-05-29T07:15:30;17.00;99.90
9662;DHT22;24982;52.344;12.990;2023-05-29T07:18:33;17.20;99.90
9662;DHT22;24982;52.344;12.990;2023-05-29T07:21:36;17.20;99.90
9662;DHT22;24982;52.344;12.990;2023-05-29T07:24:39;17.10;99.90
9662;DHT22;24982;52.344;12.990;2023-05-29T07:27:41;17.20;99.90
9662;DHT22;24982;52.344;12.990;2023-05-29T07:30:43;17.20;99.90
9662;DHT22;24982;52.344;12.990;2023-05-29T07:33:47;17.40;99.90
9662;DHT22;24982;52.344;12.990;2023-05-29T07:36:57;17.70;99.90
9662;DHT22;24982;52.344;12.990;2023-05-29T07:40:00;17.90;99.90
9662;DHT22;24982;52.344;12.990;2023-05-29T07:43:22;17.70;99.90
9662;DHT22;24982;52.344;12.990;2023-05-29T07:46:30;17.70;99.90
9662;DHT22;24982;52.344;12.990;2023-05-29T07:49:52;18.30;99.90
9662;DHT22;24982;52.344;12.990;2023-05-29T07:52:58;19.00;99.90
9662;DHT22;24982;52.344;12.990;2023-05-29T07:56:01;19.40;99.90
9662;DHT22;24982;52.344;12.990;2023-05-29T07:59:04;19.60;99.90
9662;DHT22;24982;52.344;12.990;2023-05-29T08:02:07;19.50;99.90
9662;DHT22;24982;52.344;12.990;2023-05-29T08:05:31;19.40;99.90
9662;DHT22;24982;52.344;12.990;2023-05-29T08:08:36;20.00;99.90
9662;DHT22;24982;52.344;12.990;2023-05-29T08:11:38;20.20;99.90
9662;DHT22;24982;52.344;12.990;2023-05-29T08:14:40;19.90;99.90
9662;DHT22;24982;52.344;12.990;2023-05-29T08:17:42;20.30;99.90
9662;DHT22;24982;52.344;12.990;2023-05-29T08:20:45;20.40;99.90
9662;DHT22;24982;52.344;12.990;2023-05-29T08:23:48;20.40;99.90
9662;DHT22;24982;52.344;12.990;2023-05-29T08:26:50;20.30;99.90
9662;DHT22;24982;52.344;12.990;2023-05-29T08:29:51;20.40;99.90
9662;DHT22;24982;52.344;12.990;2023-05-29T08:32:55;20.50;99.90
9662;DHT22;24982;52.344;12.990;2023-05-29T08:35:58;20.60;99.90
9662;DHT22;24982;52.344;12.990;2023-05-29T08:39:00;20.70;99.90
9662;DHT22;24982;52.344;12.990;2023-05-29T08:42:06;20.60;99.90
9662;DHT22;24982;52.344;12.990;2023-05-29T08:45:13;20.70;99.50
9662;DHT22;24982;52.344;12.990;2023-05-29T08:48:16;20.60;99.00
9662;DHT22;24982;52.344;12.990;2023-05-29T08:51:20;20.70;99.00
9662;DHT22;24982;52.344;12.990;2023-05-29T08:54:31;20.90;98.40
9662;DHT22;24982;52.344;12.990;2023-05-29T08:57:34;20.90;97.90
9662;DHT22;24982;52.344;12.990;2023-05-29T09:00:38;21.00;97.30
9662;DHT22;24982;52.344;12.990;2023-05-29T09:03:41;20.90;97.40
9662;DHT22;24982;52.344;12.990;2023-05-29T09:06:45;21.20;97.30
9662;DHT22;24982;52.344;12.990;2023-05-29T09:09:49;21.20;97.30
9662;DHT22;24982;52.344;12.990;2023-05-29T09:12:51;21.10;96.70
9662;DHT22;24982;52.344;12.990;2023-05-29T09:15:57;21.10;96.80
9662;DHT22;24982;52.344;12.990;2023-05-29T09:19:06;21.00;96.80
9662;DHT22;24982;52.344;12.990;2023-05-29T09:22:10;21.00;96.90
9662;DHT22;24982;52.344;12.990;2023-05-29T09:25:16;21.20;98.20
9662;DHT22;24982;52.344;12.990;2023-05-29T09:28:21;21.40;96.80
9662;DHT22;24982;52.344;12.990;2023-05-29T09:31:26;21.20;97.00
9662;DHT22;24982;52.344;12.990;2023-05-29T09:34:31;21.20;97.00
9662;DHT22;24982;52.344;12.990;2023-05-29T09:37:34;21.30;96.80
9662;DHT22;24982;52.344;12.990;2023-05-29T09:40:37;21.20;96.70
9662;DHT22;24982;52.344;12.990;2023-05-29T09:43:40;21.10;96.50
9662;DHT22;24982;52.344;12.990;2023-05-29T09:46:48;20.90;96.50
9662;DHT22;24982;52.344;12.990;2023-05-29T09:49:50;21.10;96.70
9662;DHT22;24982;52.344;12.990;2023-05-29T09:52:56;21.00;96.90
9662;DHT22;24982;52.344;12.990;2023-05-29T09:55:58;21.30;96.70
9662;DHT22;24982;52.344;12.990;2023-05-29T09:59:01;21.20;96.40
9662;DHT22;24982;52.344;12.990;2023-05-29T10:02:04;21.20;96.40
9662;DHT22;24982;52.344;12.990;2023-05-29T10:05:07;21.30;96.60
9662;DHT22;24982;52.344;12.990;2023-05-29T10:08:14;21.40;96.50
9662;DHT22;24982;52.344;12.990;2023-05-29T10:11:20;21.50;96.60
9662;DHT22;24982;52.344;12.990;2023-05-29T10:14:25;21.70;96.30
9662;DHT22;24982;52.344;12.990;2023-05-29T10:17:33;21.90;98.30
9662;DHT22;24982;52.344;12.990;2023-05-29T10:20:35;22.20;96.80
9662;DHT22;24982;52.344;12.990;2023-05-29T10:23:42;22.30;96.60
9662;DHT22;24982;52.344;12.990;2023-05-29T10:26:48;22.10;96.90
9662;DHT22;24982;52.344;12.990;2023-05-29T10:29:54;22.10;96.90
9662;DHT22;24982;52.344;12.990;2023-05-29T10:33:20;22.20;96.80
9662;DHT22;24982;52.344;12.990;2023-05-29T10:36:26;22.40;96.60
9662;DHT22;24982;52.344;12.990;2023-05-29T10:39:31;22.20;96.80
9662;DHT22;24982;52.344;12.990;2023-05-29T10:42:41;22.40;97.50
9662;DHT22;24982;52.344;12.990;2023-05-29T10:45:50;21.90;97.40
9662;DHT22;24982;52.344;12.990;2023-05-29T10:48:54;21.80;98.70
9662;DHT22;24982;52.344;12.990;2023-05-29T10:51:57;21.80;98.30
9662;DHT22;24982;52.344;12.990;2023-05-29T10:55:02;21.80;99.40
9662;DHT22;24982;52.344;12.990;2023-05-29T10:58:05;22.00;98.50
9662;DHT22;24982;52.344;12.990;2023-05-29T11:01:08;22.50;97.40
9662;DHT22;24982;52.344;12.990;2023-05-29T11:04:29;22.90;97.60
9662;DHT22;24982;52.344;12.990;2023-05-29T11:07:33;22.30;98.00
9662;DHT22;24982;52.344;12.990;2023-05-29T11:10:56;22.20;98.70
9662;DHT22;24982;52.344;12.990;2023-05-29T11:14:01;21.90;99.00
9662;DHT22;24982;52.344;12.990;2023-05-29T11:17:05;21.90;99.30
9662;DHT22;24982;52.344;12.990;2023-05-29T11:20:08;22.00;99.70
9662;DHT22;24982;52.344;12.990;2023-05-29T11:23:15;22.60;99.50
9662;DHT22;24982;52.344;12.990;2023-05-29T11:26:20;23.20;97.30
9662;DHT22;24982;52.344;12.990;2023-05-29T11:29:23;23.50;99.90
9662;DHT22;24982;52.344;12.990;2023-05-29T11:32:27;23.80;99.90
9662;DHT22;24982;52.344;12.990;2023-05-29T11:35:33;23.60;98.80
9662;DHT22;24982;52.344;12.990;2023-05-29T11:38:36;23.40;98.90
9662;DHT22;24982;52.344;12.990;2023-05-29T11:41:39;22.80;98.40
9662;DHT22;24982;52.344;12.990;2023-05-29T11:44:41;22.20;98.10
9662;DHT22;24982;52.344;12.990;2023-05-29T11:47:53;21.90;98.20
9662;DHT22;24982;52.344;12.990;2023-05-29T11:50:55;21.70;98.40
9662;DHT22;24982;52.344;12.990;2023-05-29T11:53:57;22.10;98.70
9662;DHT22;24982;52.344;12.990;2023-05-29T11:57:01;22.30;98.10
9662;DHT22;24982;52.344;12.990;2023-05-29T12:00:04;22.10;98.00
9662;DHT22;24982;52.344;12.990;2023-05-29T12:03:11;21.80;98.30
9662;DHT22;24982;52.344;12.990;2023-05-29T12:06:13;22.20;97.70
9662;DHT22;24982;52.344;12.990;2023-05-29T12:09:25;22.40;97.80
9662;DHT22;24982;52.344;12.990;2023-05-29T12:12:29;22.30;97.60
9662;DHT22;24982;52.344;12.990;2023-05-29T12:15:31;22.00;98.30
9662;DHT22;24982;52.344;12.990;2023-05-29T12:18:33;21.90;98.20
9662;DHT22;24982;52.344;12.990;2023-05-29T12:21:35;21.90;98.10
9662;DHT22;24982;52.344;12.990;2023-05-29T12:24:37;22.10;97.70
9662;DHT22;24982;52.344;12.990;2023-05-29T12:27:42;22.20;97.70
9662;DHT22;24982;52.344;12.990;2023-05-29T12:30:45;22.20;97.50
9662;DHT22;24982;52.344;12.990;2023-05-29T12:33:50;22.10;97.70
9662;DHT22;24982;52.344;12.990;2023-05-29T12:36:52;22.10;97.10
9662;DHT22;24982;52.344;12.990;2023-05-29T12:40:09;22.30;96.80
9662;DHT22;24982;52.344;12.990;2023-05-29T12:43:13;22.50;96.20
9662;DHT22;24982;52.344;12.990;2023-05-29T12:46:16;22.70;96.20
9662;DHT22;24982;52.344;12.990;2023-05-29T12:49:18;22.40;96.30
9662;DHT22;24982;52.344;12.990;2023-05-29T12:52:21;22.30;96.00
9662;DHT22;24982;52.344;12.990;2023-05-29T12:55:26;22.40;96.20
9662;DHT22;24982;52.344;12.990;2023-05-29T12:58:34;22.40;95.70
9662;DHT22;24982;52.344;12.990;2023-05-29T13:01:36;22.30;95.90
9662;DHT22;24982;52.344;12.990;2023-05-29T13:04:39;22.30;95.40
9662;DHT22;24982;52.344;12.990;2023-05-29T13:07:41;22.30;95.90
9662;DHT22;24982;52.344;12.990;2023-05-29T13:10:44;22.10;95.80
9662;DHT22;24982;52.344;12.990;2023-05-29T13:13:47;22.10;95.80
9662;DHT22;24982;52.344;12.990;2023-05-29T13:16:49;21.70;96.70
9662;DHT22;24982;52.344;12.990;2023-05-29T13:19:51;21.70;96.90
9662;DHT22;24982;52.344;12.990;2023-05-29T13:22:53;21.90;96.30
9662;DHT22;24982;52.344;12.990;2023-05-29T13:25:55;22.10;95.40
9662;DHT22;24982;52.344;12.990;2023-05-29T13:28:58;22.30;95.60
9662;DHT22;24982;52.344;12.990;2023-05-29T13:32:00;22.20;95.50
9662;DHT22;24982;52.344;12.990;2023-05-29T13:35:03;22.20;94.80
9662;DHT22;24982;52.344;12.990;2023-05-29T13:38:05;22.30;95.10
9662;DHT22;24982;52.344;12.990;2023-05-29T13:41:07;22.30;95.00
9662;DHT22;24982;52.344;12.990;2023-05-29T13:44:11;22.30;95.00
9662;DHT22;24982;52.344;12.990;2023-05-29T13:47:13;22.10;95.20
9662;DHT22;24982;52.344;12.990;2023-05-29T13:50:15;21.90;94.90
9662;DHT22;24982;52.344;12.990;2023-05-29T13:53:17;21.90;94.90
9662;DHT22;24982;52.344;12.990;2023-05-29T13:56:19;21.90;95.00
9662;DHT22;24982;52.344;12.990;2023-05-29T13:59:22;22.20;94.50
9662;DHT22;24982;52.344;12.990;2023-05-29T14:02:24;22.20;95.10
9662;DHT22;24982;52.344;12.990;2023-05-29T14:05:26;22.40;94.40
9662;DHT22;24982;52.344;12.990;2023-05-29T14:08:28;22.20;94.70
9662;DHT22;24982;52.344;12.990;2023-05-29T14:11:30;22.10;94.70
9662;DHT22;24982;52.344;12.990;2023-05-29T14:14:37;22.20;95.00
9662;DHT22;24982;52.344;12.990;2023-05-29T14:17:39;22.10;94.60
9662;DHT22;24982;52.344;12.990;2023-05-29T14:20:41;22.20;94.20
9662;DHT22;24982;52.344;12.990;2023-05-29T14:23:42;22.10;94.30
9662;DHT22;24982;52.344;12.990;2023-05-29T14:26:44;21.90;94.50
9662;DHT22;24982;52.344;12.990;2023-05-29T14:29:48;21.90;94.30
9662;DHT22;24982;52.344;12.990;2023-05-29T14:32:50;22.10;94.30
9662;DHT22;24982;52.344;12.990;2023-05-29T14:35:52;22.10;94.20
9662;DHT22;24982;52.344;12.990;2023-05-29T14:38:54;21.90;94.40
9662;DHT22;24982;52.344;12.990;2023-05-29T14:41:56;21.90;93.90
9662;DHT22;24982;52.344;12.990;2023-05-29T14:44:59;22.10;94.50
9662;DHT22;24982;52.344;12.990;2023-05-29T14:48:01;22.30;93.80
9662;DHT22;24982;52.344;12.990;2023-05-29T14:51:03;22.50;93.60
9662;DHT22;24982;52.344;12.990;2023-05-29T14:54:05;22.50;93.60
9662;DHT22;24982;52.344;12.990;2023-05-29T14:57:07;22.60;93.40
9662;DHT22;24982;52.344;12.990;2023-05-29T15:00:11;22.60;93.30
9662;DHT22;24982;52.344;12.990;2023-05-29T15:03:13;22.80;92.60
9662;DHT22;24982;52.344;12.990;2023-05-29T15:06:15;22.80;92.80
9662;DHT22;24982;52.344;12.990;2023-05-29T15:09:17;22.80;92.90
9662;DHT22;24982;52.344;12.990;2023-05-29T15:12:19;22.50;93.10
9662;DHT22;24982;52.344;12.990;2023-05-29T15:15:23;22.30;93.10
9662;DHT22;24982;52.344;12.990;2023-05-29T15:18:25;22.50;92.60
9662;DHT22;24982;52.344;12.990;2023-05-29T15:21:28;22.50;93.20
9662;DHT22;24982;52.344;12.990;2023-05-29T15:24:30;22.20;93.30
9662;DHT22;24982;52.344;12.990;2023-05-29T15:27:32;22.10;93.40
9662;DHT22;24982;52.344;12.990;2023-05-29T15:30:36;21.90;93.30
9662;DHT22;24982;52.344;12.990;2023-05-29T15:33:37;22.00;93.10
9662;DHT22;24982;52.344;12.990;2023-05-29T15:36:40;22.00;93.00
9662;DHT22;24982;52.344;12.990;2023-05-29T15:39:42;22.10;92.80
9662;DHT22;24982;52.344;12.990;2023-05-29T15:42:44;22.10;93.70
9662;DHT22;24982;52.344;12.990;2023-05-29T15:45:47;21.90;93.40
9662;DHT22;24982;52.344;12.990;2023-05-29T15:48:50;21.80;93.20
9662;DHT22;24982;52.344;12.990;2023-05-29T15:51:52;21.80;93.30
9662;DHT22;24982;52.344;12.990;2023-05-29T15:54:53;21.70;93.20
9662;DHT22;24982;52.344;12.990;2023-05-29T15:57:55;21.80;93.30
9662;DHT22;24982;52.344;12.990;2023-05-29T16:00:59;21.70;93.50
9662;DHT22;24982;52.344;12.990;2023-05-29T16:04:00;21.70;93.30
9662;DHT22;24982;52.344;12.990;2023-05-29T16:07:04;21.60;93.60
9662;DHT22;24982;52.344;12.990;2023-05-29T16:10:07;21.60;93.50
9662;DHT22;24982;52.344;12.990;2023-05-29T16:13:09;21.50;93.60
9662;DHT22;24982;52.344;12.990;2023-05-29T16:16:13;21.60;93.40
9662;DHT22;24982;52.344;12.990;2023-05-29T16:19:17;21.60;93.50
9662;DHT22;24982;52.344;12.990;2023-05-29T16:22:20;21.50;93.20
9662;DHT22;24982;52.344;12.990;2023-05-29T16:25:22;21.50;92.90
9662;DHT22;24982;52.344;12.990;2023-05-29T16:28:24;21.50;92.60
9662;DHT22;24982;52.344;12.990;2023-05-29T16:31:28;21.50;92.40
9662;DHT22;24982;52.344;12.990;2023-05-29T16:34:30;21.40;93.10
9662;DHT22;24982;52.344;12.990;2023-05-29T16:37:32;21.40;93.60
9662;DHT22;24982;52.344;12.990;2023-05-29T16:40:34;21.40;93.50
9662;DHT22;24982;52.344;12.990;2023-05-29T16:43:36;21.40;93.40
9662;DHT22;24982;52.344;12.990;2023-05-29T16:46:39;21.40;93.30
9662;DHT22;24982;52.344;12.990;2023-05-29T16:49:41;21.40;93.20
9662;DHT22;24982;52.344;12.990;2023-05-29T16:52:43;21.40;93.40
9662;DHT22;24982;52.344;12.990;2023-05-29T16:55:47;21.40;93.10
9662;DHT22;24982;52.344;12.990;2023-05-29T16:58:48;21.40;93.30
9662;DHT22;24982;52.344;12.990;2023-05-29T17:01:52;21.40;93.60
9662;DHT22;24982;52.344;12.990;2023-05-29T17:04:54;21.40;92.30
9662;DHT22;24982;52.344;12.990;2023-05-29T17:07:56;21.40;94.00
9662;DHT22;24982;52.344;12.990;2023-05-29T17:10:58;21.30;93.50
9662;DHT22;24982;52.344;12.990;2023-05-29T17:13:59;21.30;93.20
9662;DHT22;24982;52.344;12.990;2023-05-29T17:17:03;21.20;93.10
9662;DHT22;24982;52.344;12.990;2023-05-29T17:20:06;21.10;92.00
9662;DHT22;24982;52.344;12.990;2023-05-29T17:23:08;21.20;92.70
9662;DHT22;24982;52.344;12.990;2023-05-29T17:26:10;21.30;92.90
9662;DHT22;24982;52.344;12.990;2023-05-29T17:29:12;21.30;92.40
9662;DHT22;24982;52.344;12.990;2023-05-29T17:32:17;21.30;92.50
9662;DHT22;24982;52.344;12.990;2023-05-29T17:35:20;21.20;92.40
9662;DHT22;24982;52.344;12.990;2023-05-29T17:38:22;21.20;92.00
9662;DHT22;24982;52.344;12.990;2023-05-29T17:41:23;21.20;92.40
9662;DHT22;24982;52.344;12.990;2023-05-29T17:44:26;21.10;92.00
9662;DHT22;24982;52.344;12.990;2023-05-29T17:47:29;21.10;92.10
9662;DHT22;24982;52.344;12.990;2023-05-29T17:50:31;21.10;91.70
9662;DHT22;24982;52.344;12.990;2023-05-29T17:53:37;21.00;91.80
9662;DHT22;24982;52.344;12.990;2023-05-29T17:56:38;21.00;91.70
9662;DHT22;24982;52.344;12.990;2023-05-29T17:59:41;21.00;92.00
9662;DHT22;24982;52.344;12.990;2023-05-29T18:02:44;21.00;91.90
9662;DHT22;24982;52.344;12.990;2023-05-29T18:05:46;21.00;92.10
9662;DHT22;24982;52.344;12.990;2023-05-29T18:08:48;21.00;92.50
9662;DHT22;24982;52.344;12.990;2023-05-29T18:11:50;21.00;91.10
9662;DHT22;24982;52.344;12.990;2023-05-29T18:14:52;20.80;90.90
9662;DHT22;24982;52.344;12.990;2023-05-29T18:17:56;20.90;92.00
9662;DHT22;24982;52.344;12.990;2023-05-29T18:20:58;20.80;91.10
9662;DHT22;24982;52.344;12.990;2023-05-29T18:24:01;20.90;92.00
9662;DHT22;24982;52.344;12.990;2023-05-29T18:27:06;20.80;91.20
9662;DHT22;24982;52.344;12.990;2023-05-29T18:30:12;20.90;92.20
9662;DHT22;24982;52.344;12.990;2023-05-29T18:33:16;20.90;90.30
9662;DHT22;24982;52.344;12.990;2023-05-29T18:36:19;20.80;91.20
9662;DHT22;24982;52.344;12.990;2023-05-29T18:39:21;20.70;91.80
9662;DHT22;24982;52.344;12.990;2023-05-29T18:42:25;20.70;90.90
9662;DHT22;24982;52.344;12.990;2023-05-29T18:45:27;20.60;90.80
9662;DHT22;24982;52.344;12.990;2023-05-29T18:48:32;20.30;89.20
9662;DHT22;24982;52.344;12.990;2023-05-29T18:51:34;20.40;92.20
9662;DHT22;24982;52.344;12.990;2023-05-29T18:54:40;20.40;90.30
9662;DHT22;24982;52.344;12.990;2023-05-29T18:57:43;20.20;90.00
9662;DHT22;24982;52.344;12.990;2023-05-29T19:00:45;19.30;87.70
9662;DHT22;24982;52.344;12.990;2023-05-29T19:03:48;18.60;88.70
9662;DHT22;24982;52.344;12.990;2023-05-29T19:06:50;18.30;88.60
9662;DHT22;24982;52.344;12.990;2023-05-29T19:09:53;18.10;90.60
9662;DHT22;24982;52.344;12.990;2023-05-29T19:12:55;18.40;92.80
9662;DHT22;24982;52.344;12.990;2023-05-29T19:15:57;18.70;91.50
9662;DHT22;24982;52.344;12.990;2023-05-29T19:19:00;18.80;91.80
9662;DHT22;24982;52.344;12.990;2023-05-29T19:22:02;18.80;90.20
9662;DHT22;24982;52.344;12.990;2023-05-29T19:25:05;18.90;91.30
9662;DHT22;24982;52.344;12.990;2023-05-29T19:28:07;18.90;90.40
9662;DHT22;24982;52.344;12.990;2023-05-29T19:31:10;19.70;92.00
9662;DHT22;24982;52.344;12.990;2023-05-29T19:34:13;19.00;90.30
9662;DHT22;24982;52.344;12.990;2023-05-29T19:37:15;19.10;91.50
9662;DHT22;24982;52.344;12.990;2023-05-29T19:40:17;18.90;91.10
9662;DHT22;24982;52.344;12.990;2023-05-29T19:43:19;18.90;91.10
9662;DHT22;24982;52.344;12.990;2023-05-29T19:46:31;19.30;91.80
9662;DHT22;24982;52.344;12.990;2023-05-29T19:49:39;18.70;92.30
9662;DHT22;24982;52.344;12.990;2023-05-29T19:52:43;19.20;92.40
9662;DHT22;24982;52.344;12.990;2023-05-29T19:55:45;19.70;92.30
9662;DHT22;24982;52.344;12.990;2023-05-29T19:58:48;19.70;92.90
9662;DHT22;24982;52.344;12.990;2023-05-29T20:01:50;19.00;93.30
9662;DHT22;24982;52.344;12.990;2023-05-29T20:04:53;19.30;93.60
9662;DHT22;24982;52.344;12.990;2023-05-29T20:07:55;19.30;93.10
9662;DHT22;24982;52.344;12.990;2023-05-29T20:10:57;19.40;93.80
9662;DHT22;24982;52.344;12.990;2023-05-29T20:13:59;19.40;95.40
9662;DHT22;24982;52.344;12.990;2023-05-29T20:17:01;19.10;94.80
9662;DHT22;24982;52.344;12.990;2023-05-29T20:20:06;19.10;93.90
9662;DHT22;24982;52.344;12.990;2023-05-29T20:23:08;19.10;91.70
9662;DHT22;24982;52.344;12.990;2023-05-29T20:26:11;19.00;94.10
9662;DHT22;24982;52.344;12.990;2023-05-29T20:29:13;18.70;92.30
9662;DHT22;24982;52.344;12.990;2023-05-29T20:32:15;18.50;93.40
9662;DHT22;24982;52.344;12.990;2023-05-29T20:35:19;18.80;94.40
9662;DHT22;24982;52.344;12.990;2023-05-29T20:38:22;19.10;94.20
9662;DHT22;24982;52.344;12.990;2023-05-29T20:41:24;18.80;93.30
9662;DHT22;24982;52.344;12.990;2023-05-29T20:44:27;18.30;93.10
9662;DHT22;24982;52.344;12.990;2023-05-29T20:47:30;17.70;94.80
9662;DHT22;24982;52.344;12.990;2023-05-29T20:53:40;16.60;91.20
9662;DHT22;24982;52.344;12.990;2023-05-29T20:56:43;16.10;98.40
9662;DHT22;24982;52.344;12.990;2023-05-29T20:59:45;16.00;97.60
9662;DHT22;24982;52.344;12.990;2023-05-29T21:02:48;15.70;95.10
9662;DHT22;24982;52.344;12.990;2023-05-29T21:05:56;15.60;96.80
9662;DHT22;24982;52.344;12.990;2023-05-29T21:08:59;15.60;95.70
9662;DHT22;24982;52.344;12.990;2023-05-29T21:12:01;15.50;95.70
9662;DHT22;24982;52.344;12.990;2023-05-29T21:15:06;15.70;96.60
9662;DHT22;24982;52.344;12.990;2023-05-29T21:18:09;15.60;96.20
9662;DHT22;24982;52.344;12.990;2023-05-29T21:21:13;15.60;96.60
9662;DHT22;24982;52.344;12.990;2023-05-29T21:24:15;15.60;96.50
9662;DHT22;24982;52.344;12.990;2023-05-29T21:27:18;15.20;97.80
9662;DHT22;24982;52.344;12.990;2023-05-29T21:30:21;15.10;99.90
9662;DHT22;24982;52.344;12.990;2023-05-29T21:33:24;14.90;99.90
9662;DHT22;24982;52.344;12.990;2023-05-29T21:36:37;14.80;99.90
9662;DHT22;24982;52.344;12.990;2023-05-29T21:42:43;14.40;97.50
9662;DHT22;24982;52.344;12.990;2023-05-29T21:48:47;14.30;99.90
9662;DHT22;24982;52.344;12.990;2023-05-29T21:51:53;14.20;99.90
9662;DHT22;24982;52.344;12.990;2023-05-29T21:58:02;13.80;96.10